Time;durP1;ratioP1;P1;durP2;ratioP2;P2;SDS_P1;SDS_P2;PMS_P1;PMS_P2;Temp;Humidity;BMP_temperature;BMP_pressure;BME280_temperature;BME280_humidity;BME280_pressure;Samples;Min_cycle;Max_cycle;Signal;HPM_P1;HPM_P2
2021/11/09 00:09:10;;;;;;;33.78;16.05;;;;;;;;;;21080127;28;20113;-57
2021/11/09 00:19:12;;;;;;;17.38;7.97;;;;;;;;;;21080596;28;20412;-56
2021/11/09 00:29:16;;;;;;;13.30;6.32;;;;;;;;;;21078814;28;20488;-61
2021/11/09 00:39:33;;;;;;;16.08;7.38;;;;;;;;;;21067728;27;20400;-57
2021/11/09 00:49:48;;;;;;;14.43;8.30;;;;;;;;;;21068576;27;20487;-59
2021/11/09 01:00:05;;;;;;;15.52;6.88;;;;;;;;;;21067910;27;20409;-63
2021/11/09 01:10:20;;;;;;;14.18;6.15;;;;;;;;;;21452012;27;1358724;-57
2021/11/09 01:20:38;;;;;;;9.88;5.07;;;;;;;;;;21067543;27;20754;-56
2021/11/09 01:30:53;;;;;;;26.30;12.30;;;;;;;;;;21236488;27;20402;-56
2021/11/09 01:40:55;;;;;;;32.38;14.43;;;;;;;;;;21236309;27;20108;-57
2021/11/09 01:50:59;;;;;;;14.57;7.40;;;;;;;;;;21236257;27;20492;-61
2021/11/09 02:01:05;;;;;;;16.08;7.90;;;;;;;;;;21234842;27;20047;-56
2021/11/09 02:11:08;;;;;;;15.38;6.82;;;;;;;;;;21233602;27;20051;-56
2021/11/09 02:21:13;;;;;;;14.48;6.70;;;;;;;;;;21232952;27;20051;-56
2021/11/09 02:31:17;;;;;;;16.13;7.03;;;;;;;;;;21233351;27;20151;-57
2021/11/09 02:41:20;;;;;;;16.17;8.80;;;;;;;;;;21181229;27;20040;-56
2021/11/09 02:51:40;;;;;;;15.05;8.25;;;;;;;;;;21174916;27;20119;-57
2021/11/09 03:01:55;;;;;;;12.10;4.55;;;;;;;;;;21173321;28;20048;-57
2021/11/09 03:11:59;;;;;;;7.57;3.87;;;;;;;;;;21172162;28;20055;-57
2021/11/09 03:53:48;;;;;;;4.22;2.45;;;;;;;;;;21168520;28;20400;-60
2021/11/09 04:04:24;;;;;;;6.65;2.92;;;;;;;;;;21168509;28;20473;-56
2021/11/09 04:14:47;;;;;;;5.57;2.50;;;;;;;;;;21167336;28;20048;-59
2021/11/09 04:35:52;;;;;;;5.72;2.22;;;;;;;;;;21165884;28;20093;-61
2021/11/09 05:16:53;;;;;;;10.25;3.80;;;;;;;;;;21163447;28;20048;-57
2021/11/09 05:26:58;;;;;;;8.10;3.73;;;;;;;;;;21163409;28;20052;-62
2021/11/09 05:37:06;;;;;;;9.30;4.22;;;;;;;;;;21161173;28;20055;-56
2021/11/09 05:47:08;;;;;;;10.25;4.30;;;;;;;;;;21162545;28;20479;-60
2021/11/09 05:57:10;;;;;;;11.48;4.47;;;;;;;;;;21162129;28;20059;-56
2021/11/09 06:07:12;;;;;;;11.88;4.47;;;;;;;;;;21161171;28;20087;-56
2021/11/09 06:17:14;;;;;;;10.90;4.38;;;;;;;;;;21177692;28;20119;-57
2021/11/09 06:27:17;;;;;;;10.13;4.47;;;;;;;;;;21175871;28;20056;-56
2021/11/09 06:37:20;;;;;;;10.90;6.85;;;;;;;;;;21175636;28;20123;-56
2021/11/09 06:47:23;;;;;;;9.15;4.72;;;;;;;;;;21175397;28;20048;-57
2021/11/09 06:57:24;;;;;;;12.93;4.97;;;;;;;;;;21174692;28;20091;-61
2021/11/09 07:07:27;;;;;;;9.10;4.28;;;;;;;;;;21172968;28;20113;-61
2021/11/09 07:17:29;;;;;;;6.60;2.80;;;;;;;;;;21171335;28;20051;-56
2021/11/09 07:27:31;;;;;;;5.47;2.80;;;;;;;;;;21171175;28;20488;-56
2021/11/09 07:37:34;;;;;;;7.88;2.80;;;;;;;;;;21171405;28;20132;-55
2021/11/09 07:47:36;;;;;;;5.75;2.90;;;;;;;;;;21170367;28;20044;-60
2021/11/09 07:57:46;;;;;;;7.63;3.33;;;;;;;;;;21169082;28;20051;-61
2021/11/09 08:07:53;;;;;;;7.68;3.30;;;;;;;;;;21168398;28;20058;-56
2021/11/09 08:17:57;;;;;;;6.93;4.03;;;;;;;;;;21168068;28;20152;-60
2021/11/09 08:28:01;;;;;;;10.13;4.45;;;;;;;;;;21164716;27;20056;-56
2021/11/09 08:38:06;;;;;;;10.73;4.80;;;;;;;;;;21165810;28;20563;-56
2021/11/09 08:48:14;;;;;;;9.98;4.72;;;;;;;;;;21164848;28;20086;-61
2021/11/09 09:08:38;;;;;;;11.48;5.65;;;;;;;;;;21163849;28;20491;-59
2021/11/09 09:18:40;;;;;;;8.02;4.85;;;;;;;;;;21164050;28;20388;-57
2021/11/09 09:59:38;;;;;;;5.65;2.53;;;;;;;;;;21177696;28;20476;-57
2021/11/09 10:09:42;;;;;;;6.20;2.87;;;;;;;;;;21176318;28;20050;-58
2021/11/09 10:19:44;;;;;;;5.70;3.13;;;;;;;;;;21175871;28;20074;-57
2021/11/09 10:29:51;;;;;;;6.43;2.53;;;;;;;;;;21174118;28;20063;-57
2021/11/09 10:39:55;;;;;;;24.95;11.73;;;;;;;;;;21173465;28;20079;-56
2021/11/09 10:49:59;;;;;;;8.48;2.83;;;;;;;;;;21172255;28;20058;-61
2021/11/09 11:10:18;;;;;;;4.95;2.13;;;;;;;;;;21170932;28;20054;-57
2021/11/09 11:20:23;;;;;;;6.63;2.60;;;;;;;;;;21170397;27;20047;-57
2021/11/09 11:30:25;;;;;;;11.93;4.03;;;;;;;;;;21169133;28;20055;-56
2021/11/09 11:40:29;;;;;;;8.52;2.50;;;;;;;;;;21168734;28;20165;-57
2021/11/09 11:50:41;;;;;;;4.75;2.53;;;;;;;;;;21156007;28;20070;-53
2021/11/09 12:00:56;;;;;;;6.15;2.78;;;;;;;;;;21168212;28;20048;-56
2021/11/09 12:10:58;;;;;;;8.38;2.67;;;;;;;;;;21155685;28;20143;-57
2021/11/09 12:21:03;;;;;;;7.32;3.25;;;;;;;;;;21022680;28;20063;-55
2021/11/09 12:31:11;;;;;;;9.60;3.40;;;;;;;;;;21009011;28;20057;-63
2021/11/09 12:41:15;;;;;;;4.55;2.85;;;;;;;;;;21046671;28;20101;-57
2021/11/09 12:51:19;;;;;;;6.75;3.80;;;;;;;;;;21066541;28;20043;-57
2021/11/09 13:11:27;;;;;;;7.15;3.97;;;;;;;;;;21078774;28;20083;-58
2021/11/09 13:21:31;;;;;;;9.55;4.68;;;;;;;;;;21077967;28;20063;-61
2021/11/09 13:31:35;;;;;;;7.80;3.85;;;;;;;;;;21077099;28;20098;-60
2021/11/09 13:41:41;;;;;;;4.18;2.10;;;;;;;;;;21078140;28;20084;-57
2021/11/09 13:51:48;;;;;;;4.18;1.60;;;;;;;;;;21077146;28;20051;-58
2021/11/09 14:23:03;;;;;;;4.72;1.50;;;;;;;;;;20900011;28;20048;-64
2021/11/09 14:33:19;;;;;;;5.00;1.85;;;;;;;;;;20907108;28;20180;-58
2021/11/09 14:43:25;;;;;;;4.30;1.80;;;;;;;;;;21015528;28;20115;-57
2021/11/09 14:53:31;;;;;;;3.78;2.65;;;;;;;;;;21090016;28;20058;-64
2021/11/09 15:03:52;;;;;;;2.67;1.73;;;;;;;;;;21088899;28;20052;-62
2021/11/09 15:44:42;;;;;;;3.45;1.30;;;;;;;;;;21086490;28;20139;-63
2021/11/09 15:54:44;;;;;;;2.95;1.20;;;;;;;;;;21084641;28;20139;-62
2021/11/09 16:04:46;;;;;;;3.30;1.50;;;;;;;;;;21083635;28;20416;-63
2021/11/09 16:14:49;;;;;;;2.55;1.23;;;;;;;;;;21084221;28;20117;-58
2021/11/09 16:24:52;;;;;;;2.42;1.40;;;;;;;;;;21080639;28;20500;-58
2021/11/09 16:34:58;;;;;;;5.05;2.00;;;;;;;;;;21082241;28;20052;-57
2021/11/09 16:45:01;;;;;;;3.88;1.60;;;;;;;;;;21080654;28;20048;-59
2021/11/09 16:55:24;;;;;;;3.97;1.20;;;;;;;;;;21080876;28;20090;-61
2021/11/09 18:27:56;;;;;;;12.90;7.10;;;;;;;;;;21090759;28;20052;-63
2021/11/09 18:38:00;;;;;;;12.38;7.30;;;;;;;;;;21091698;28;20047;-59
2021/11/09 18:48:02;;;;;;;15.63;5.63;;;;;;;;;;21090539;28;20097;-58
2021/11/09 18:58:04;;;;;;;9.25;4.60;;;;;;;;;;21089489;28;20052;-58
2021/11/09 19:08:06;;;;;;;9.60;5.25;;;;;;;;;;21088848;28;20047;-58
2021/11/09 19:18:08;;;;;;;10.80;4.93;;;;;;;;;;21086100;28;20052;-61
2021/11/09 19:28:10;;;;;;;9.55;5.95;;;;;;;;;;21087414;28;20144;-58
2021/11/09 19:38:13;;;;;;;10.35;4.63;;;;;;;;;;21087212;28;20477;-57
2021/11/09 19:48:15;;;;;;;11.73;4.85;;;;;;;;;;21085690;28;20464;-59
2021/11/09 19:58:24;;;;;;;7.50;4.03;;;;;;;;;;21085059;28;20084;-60
2021/11/09 20:08:27;;;;;;;9.15;5.30;;;;;;;;;;21083731;28;20048;-56
2021/11/09 20:18:29;;;;;;;13.90;7.15;;;;;;;;;;21083676;28;20052;-59
2021/11/09 20:28:31;;;;;;;10.45;3.97;;;;;;;;;;21081083;28;20063;-59
2021/11/09 20:38:34;;;;;;;7.85;3.40;;;;;;;;;;21080779;28;20092;-62
2021/11/09 20:48:37;;;;;;;7.45;3.25;;;;;;;;;;21081191;28;20476;-59
2021/11/09 20:58:39;;;;;;;7.35;3.03;;;;;;;;;;21080274;28;20044;-60
2021/11/09 21:08:41;;;;;;;8.55;2.97;;;;;;;;;;21079454;28;20530;-59
2021/11/09 21:18:43;;;;;;;5.65;3.28;;;;;;;;;;21080365;28;20044;-59
2021/11/09 21:28:55;;;;;;;5.38;2.78;;;;;;;;;;21077433;28;20060;-57
2021/11/09 21:38:57;;;;;;;6.53;3.03;;;;;;;;;;21080699;28;20040;-59
2021/11/09 21:48:59;;;;;;;7.25;3.63;;;;;;;;;;21096620;28;20048;-62
2021/11/09 21:59:02;;;;;;;9.35;3.20;;;;;;;;;;21094756;28;20059;-59
2021/11/09 22:09:05;;;;;;;9.85;3.20;;;;;;;;;;21094891;28;20052;-60
2021/11/09 22:19:09;;;;;;;6.47;3.13;;;;;;;;;;21093997;28;20109;-62
2021/11/09 22:29:11;;;;;;;6.88;2.90;;;;;;;;;;21092048;28;20051;-63
2021/11/09 22:39:13;;;;;;;6.53;2.63;;;;;;;;;;21092694;28;20055;-63
2021/11/09 22:49:15;;;;;;;7.40;2.80;;;;;;;;;;21091740;28;20052;-62
2021/11/09 22:59:17;;;;;;;6.60;3.28;;;;;;;;;;21090593;28;20135;-60
2021/11/09 23:09:19;;;;;;;6.82;3.20;;;;;;;;;;21089741;28;20048;-59
2021/11/09 23:19:22;;;;;;;7.05;3.30;;;;;;;;;;21091281;28;20051;-58
2021/11/09 23:29:24;;;;;;;10.00;3.38;;;;;;;;;;21087534;28;20415;-58
2021/11/09 23:39:26;;;;;;;7.60;3.03;;;;;;;;;;21088345;28;20503;-57
2021/11/09 23:49:30;;;;;;;12.13;4.75;;;;;;;;;;21085975;28;20052;-61
2021/11/09 23:59:31;;;;;;;9.23;2.72;;;;;;;;;;21086777;28;20057;-59
